createdAt,value
2019-01-17T00:01:49.657Z,6.27
2019-01-17T00:04:25.611Z,9.30
2019-01-17T00:07:17.230Z,10.53
2019-01-17T00:10:07.141Z,11.43
2019-01-17T00:12:51.795Z,5.37
2019-01-17T00:15:31.839Z,5.47
2019-01-17T00:18:27.128Z,8.50
2019-01-17T00:21:01.554Z,7.83
2019-01-17T00:24:02.641Z,8.93
2019-01-17T00:26:57.389Z,11.07
2019-01-17T00:29:45.712Z,8.47
2019-01-17T00:32:40.613Z,7.53
2019-01-17T00:35:29.820Z,5.70
2019-01-17T00:38:21.852Z,8.07
2019-01-17T00:40:57.306Z,15.20
2019-01-17T00:43:45.744Z,9.40
2019-01-17T00:46:30.371Z,6.63
2019-01-17T00:49:16.598Z,8.17
2019-01-17T00:52:06.410Z,6.67
2019-01-17T00:54:51.040Z,6.87
2019-01-17T00:57:35.791Z,6.50
2019-01-17T01:00:22.923Z,6.27
2019-01-17T01:03:18.480Z,9.33
2019-01-17T01:06:05.963Z,8.87
2019-01-17T01:08:54.516Z,6.47
2019-01-17T01:11:59.452Z,5.83
2019-01-17T01:14:44.258Z,7.20
2019-01-17T01:17:33.597Z,6.70
2019-01-17T01:20:38.001Z,6.63
2019-01-17T01:23:36.288Z,4.47
2019-01-17T01:26:13.773Z,6.67
2019-01-17T01:29:05.762Z,5.97
2019-01-17T01:31:51.816Z,14.50
2019-01-17T01:34:41.394Z,9.80
2019-01-17T01:37:33.589Z,7.30
2019-01-17T01:40:19.854Z,5.17
2019-01-17T01:43:14.901Z,6.63
2019-01-17T01:46:03.086Z,5.27
2019-01-17T01:48:36.971Z,6.43
2019-01-17T01:51:21.884Z,6.73
2019-01-17T01:53:48.436Z,5.97
2019-01-17T01:56:14.982Z,9.13
2019-01-17T01:58:41.509Z,7.50
2019-01-17T02:01:08.083Z,11.30
2019-01-17T02:03:34.651Z,5.47
2019-01-17T02:06:01.191Z,4.07
2019-01-17T02:08:27.702Z,6.30
2019-01-17T02:10:54.295Z,4.90
2019-01-17T02:13:20.978Z,5.30
2019-01-17T02:15:47.514Z,8.60
2019-01-17T02:18:14.097Z,7.33
2019-01-17T02:20:40.751Z,4.83
2019-01-17T02:23:07.275Z,6.77
2019-01-17T02:25:33.839Z,6.77
2019-01-17T02:28:00.459Z,7.40
2019-01-17T02:30:26.964Z,8.80
2019-01-17T02:32:53.565Z,7.97
2019-01-17T02:35:20.146Z,5.87
2019-01-17T02:37:46.727Z,7.63
2019-01-17T02:40:13.387Z,9.80
2019-01-17T02:42:39.939Z,7.50
2019-01-17T02:45:07.871Z,9.33
2019-01-17T02:47:34.522Z,8.17
2019-01-17T02:50:01.097Z,9.53
2019-01-17T02:52:27.681Z,11.50
2019-01-17T02:54:54.215Z,9.27
2019-01-17T02:57:20.836Z,11.17
2019-01-17T02:59:47.338Z,8.97
2019-01-17T03:02:13.958Z,6.80
2019-01-17T03:04:40.529Z,7.10
2019-01-17T03:07:07.113Z,7.20
2019-01-17T03:09:33.645Z,7.77
2019-01-17T03:12:00.192Z,6.67
2019-01-17T03:14:26.705Z,7.57
2019-01-17T03:16:53.180Z,12.40
2019-01-17T03:19:19.736Z,7.47
2019-01-17T03:21:46.300Z,7.17
2019-01-17T03:24:12.829Z,6.73
2019-01-17T03:26:39.353Z,9.23
2019-01-17T03:29:05.877Z,5.80
2019-01-17T03:31:32.701Z,7.70
2019-01-17T03:33:59.275Z,6.30
2019-01-17T03:36:25.825Z,7.80
2019-01-17T03:38:52.383Z,5.60
2019-01-17T03:41:18.972Z,5.90
2019-01-17T03:43:45.516Z,5.77
2019-01-17T03:46:12.055Z,6.40
2019-01-17T03:48:38.614Z,6.33
2019-01-17T03:51:05.146Z,5.13
2019-01-17T03:53:31.681Z,4.63
2019-01-17T03:55:58.226Z,8.47
2019-01-17T03:58:24.790Z,7.13
2019-01-17T04:00:51.293Z,5.50
2019-01-17T04:03:17.850Z,5.20
2019-01-17T04:05:44.394Z,5.10
2019-01-17T04:08:10.925Z,4.20
2019-01-17T04:10:37.412Z,4.50
2019-01-17T04:13:04.052Z,4.03
2019-01-17T04:15:30.589Z,3.90
2019-01-17T04:17:57.126Z,5.33
2019-01-17T04:20:23.681Z,6.13
2019-01-17T04:22:50.235Z,3.20
2019-01-17T04:25:16.748Z,4.10
2019-01-17T04:27:43.283Z,3.63
2019-01-17T04:30:12.652Z,4.43
2019-01-17T04:32:39.287Z,4.63
2019-01-17T04:35:05.853Z,3.00
2019-01-17T04:37:32.367Z,4.90
2019-01-17T04:39:58.922Z,3.37
2019-01-17T04:42:25.436Z,4.20
2019-01-17T04:44:52.009Z,3.67
2019-01-17T04:47:18.533Z,2.93
2019-01-17T04:49:45.088Z,5.53
2019-01-17T04:52:11.596Z,3.10
2019-01-17T04:54:38.524Z,3.53
2019-01-17T04:57:05.192Z,6.83
2019-01-17T04:59:31.998Z,3.60
2019-01-17T05:01:58.672Z,3.80
2019-01-17T05:04:25.232Z,3.33
2019-01-17T05:06:51.732Z,2.67
2019-01-17T05:09:18.273Z,4.80
2019-01-17T05:11:44.793Z,3.23
2019-01-17T05:14:11.322Z,3.10
2019-01-17T05:16:37.823Z,2.90
2019-01-17T05:19:04.388Z,3.40
2019-01-17T05:21:31.008Z,4.67
2019-01-17T05:23:57.583Z,3.63
2019-01-17T05:26:24.104Z,2.90
2019-01-17T05:28:50.653Z,6.13
2019-01-17T05:31:17.156Z,3.20
2019-01-17T05:33:43.755Z,4.17
2019-01-17T05:36:10.365Z,2.23
2019-01-17T05:38:36.945Z,3.70
2019-01-17T05:41:03.571Z,2.63
2019-01-17T05:43:30.229Z,5.53
2019-01-17T05:45:56.979Z,4.23
2019-01-17T05:48:23.480Z,3.90
2019-01-17T05:50:50.688Z,2.90
2019-01-17T05:53:17.238Z,2.77
2019-01-17T05:55:43.756Z,3.47
2019-01-17T05:58:10.319Z,4.27
2019-01-17T06:00:36.872Z,3.13
2019-01-17T06:03:03.388Z,2.73
2019-01-17T06:05:29.953Z,2.63
2019-01-17T06:07:56.469Z,2.27
2019-01-17T06:10:23.039Z,3.10
2019-01-17T06:12:50.314Z,2.40
2019-01-17T06:15:19.988Z,2.63
2019-01-17T06:17:46.472Z,5.63
2019-01-17T06:20:13.169Z,3.00
2019-01-17T06:22:39.676Z,4.90
2019-01-17T06:25:06.356Z,4.57
2019-01-17T06:27:32.820Z,6.30
2019-01-17T06:29:59.357Z,4.20
2019-01-17T06:32:25.881Z,2.90
2019-01-17T06:34:52.391Z,3.33
2019-01-17T06:37:19.061Z,4.60
2019-01-17T06:39:45.644Z,2.70
2019-01-17T06:42:12.502Z,5.20
2019-01-17T06:44:39.346Z,3.27
2019-01-17T06:47:06.153Z,2.80
2019-01-17T06:49:32.840Z,3.13
2019-01-17T06:52:26.198Z,3.73
2019-01-17T06:54:53.194Z,3.37
2019-01-17T06:57:19.807Z,3.43
2019-01-17T06:59:46.896Z,6.77
2019-01-17T07:02:13.644Z,4.80
2019-01-17T07:04:40.188Z,12.67
2019-01-17T07:07:06.789Z,3.67
2019-01-17T07:09:33.335Z,3.50
2019-01-17T07:11:59.841Z,2.50
2019-01-17T07:14:26.375Z,5.93
2019-01-17T07:16:54.408Z,3.27
2019-01-17T07:19:21.150Z,3.97
2019-01-17T07:21:47.689Z,4.60
2019-01-17T07:24:14.208Z,2.47
2019-01-17T07:26:40.820Z,3.77
2019-01-17T07:29:07.519Z,2.90
2019-01-17T07:31:34.094Z,3.37
2019-01-17T07:34:00.590Z,5.23
2019-01-17T07:36:27.171Z,5.63
2019-01-17T07:38:53.747Z,6.53
2019-01-17T07:41:20.271Z,10.37
2019-01-17T07:43:46.841Z,4.37
2019-01-17T07:46:13.373Z,3.27
2019-01-17T07:48:39.939Z,6.73
2019-01-17T07:51:06.901Z,5.83
2019-01-17T07:53:33.520Z,5.93
2019-01-17T07:56:00.199Z,2.93
2019-01-17T07:58:26.775Z,5.33
2019-01-17T08:00:53.476Z,3.77
2019-01-17T08:03:20.235Z,3.93
2019-01-17T08:05:46.762Z,4.50
2019-01-17T08:08:13.414Z,2.93
2019-01-17T08:10:39.976Z,7.00
2019-01-17T08:13:06.519Z,3.57
2019-01-17T08:15:33.311Z,6.70
2019-01-17T08:17:59.877Z,5.63
2019-01-17T08:20:26.433Z,4.60
2019-01-17T08:22:53.097Z,4.70
2019-01-17T08:25:19.957Z,4.57
2019-01-17T08:27:46.477Z,2.53
2019-01-17T08:30:15.481Z,10.50
2019-01-17T08:32:41.992Z,3.10
2019-01-17T08:35:10.416Z,2.20
2019-01-17T08:37:37.157Z,2.60
2019-01-17T08:40:07.467Z,2.67
2019-01-17T08:42:33.971Z,2.63
2019-01-17T08:45:00.530Z,2.20
2019-01-17T08:47:27.084Z,4.00
2019-01-17T08:49:53.631Z,5.27
2019-01-17T08:52:20.509Z,6.73
2019-01-17T08:54:47.031Z,2.17
2019-01-17T08:57:13.643Z,4.73
2019-01-17T08:59:40.205Z,3.70
2019-01-17T09:02:06.795Z,3.77
2019-01-17T09:04:33.451Z,2.93
2019-01-17T09:07:00.233Z,1.30
2019-01-17T09:09:26.800Z,2.37
2019-01-17T09:11:53.285Z,1.77
2019-01-17T09:14:19.963Z,2.40
2019-01-17T09:16:46.579Z,4.00
2019-01-17T09:19:13.127Z,2.60
2019-01-17T09:21:39.614Z,2.80
2019-01-17T09:24:06.145Z,1.63
2019-01-17T09:26:32.701Z,1.70
2019-01-17T09:28:59.242Z,2.70
2019-01-17T09:31:25.775Z,1.90
2019-01-17T09:33:52.418Z,2.87
2019-01-17T09:36:18.937Z,3.13
2019-01-17T09:38:45.500Z,1.27
2019-01-17T09:41:12.032Z,1.47
2019-01-17T09:43:38.558Z,3.43
2019-01-17T09:46:05.041Z,6.53
2019-01-17T09:48:31.816Z,3.57
2019-01-17T09:50:58.381Z,1.23
2019-01-17T09:53:26.853Z,1.17
2019-01-17T09:55:53.343Z,1.00
2019-01-17T09:58:19.902Z,2.50
2019-01-17T10:00:46.386Z,2.10
2019-01-17T10:03:13.004Z,1.33
2019-01-17T10:05:39.511Z,6.23
2019-01-17T10:08:06.037Z,2.10
2019-01-17T10:10:32.613Z,1.50
2019-01-17T10:12:59.095Z,1.80
2019-01-17T10:15:37.896Z,3.77
2019-01-17T10:18:49.593Z,1.53
2019-01-17T10:21:42.117Z,2.77
2019-01-17T10:24:32.192Z,1.13
2019-01-17T10:27:39.460Z,2.20
2019-01-17T10:31:09.632Z,1.13
2019-01-17T10:34:12.304Z,0.60
2019-01-17T10:36:59.987Z,2.50
2019-01-17T10:40:11.392Z,2.10
2019-01-17T10:42:55.242Z,1.23
2019-01-17T10:46:00.723Z,1.80
2019-01-17T10:48:45.103Z,1.77
2019-01-17T10:51:53.836Z,3.50
2019-01-17T10:55:01.335Z,2.27
2019-01-17T10:58:02.073Z,1.60
2019-01-17T11:00:57.641Z,0.90
2019-01-17T11:03:50.644Z,1.33
2019-01-17T11:06:59.159Z,2.33
2019-01-17T11:09:40.763Z,0.70
2019-01-17T11:13:04.862Z,3.10
2019-01-17T11:15:55.711Z,1.17
2019-01-17T11:19:03.356Z,0.87
2019-01-17T11:22:07.970Z,3.97
2019-01-17T11:25:14.724Z,2.37
2019-01-17T11:28:27.335Z,5.50
2019-01-17T11:31:20.102Z,2.53
2019-01-17T11:34:12.870Z,3.27
2019-01-17T11:37:10.444Z,1.27
2019-01-17T11:39:59.302Z,2.60
2019-01-17T11:42:50.437Z,3.03
2019-01-17T11:45:45.830Z,1.83
2019-01-17T11:49:00.946Z,2.57
2019-01-17T11:51:57.931Z,2.40
2019-01-17T11:54:33.642Z,1.73
2019-01-17T11:57:33.286Z,1.63
2019-01-17T12:00:41.080Z,2.87
2019-01-17T12:03:41.468Z,1.70
2019-01-17T12:06:07.965Z,2.00
2019-01-17T12:08:34.469Z,1.13
2019-01-17T12:11:01.107Z,1.87
2019-01-17T12:13:29.042Z,1.90
2019-01-17T12:15:55.554Z,1.43
2019-01-17T12:18:22.041Z,1.07
2019-01-17T12:20:48.742Z,2.30
2019-01-17T12:23:15.450Z,0.93
2019-01-17T12:25:42.128Z,1.90
2019-01-17T12:28:08.660Z,0.97
2019-01-17T12:30:35.310Z,0.67
2019-01-17T12:33:01.856Z,1.57
2019-01-17T12:35:28.396Z,1.60
2019-01-17T12:37:54.953Z,0.80
2019-01-17T12:40:21.556Z,1.80
2019-01-17T12:42:48.093Z,5.77
2019-01-17T12:45:14.635Z,0.50
2019-01-17T12:47:41.276Z,1.00
2019-01-17T12:50:14.236Z,1.70
2019-01-17T12:52:40.792Z,0.77
2019-01-17T12:55:07.618Z,0.83
2019-01-17T12:57:34.113Z,1.53
2019-01-17T13:00:00.817Z,1.13
2019-01-17T13:02:27.326Z,1.07
2019-01-17T13:04:54.234Z,1.23
2019-01-17T13:07:20.807Z,0.53
2019-01-17T13:09:47.413Z,3.37
2019-01-17T13:12:13.949Z,0.97
2019-01-17T13:14:40.551Z,1.30
2019-01-17T13:17:07.138Z,1.63
2019-01-17T13:19:33.997Z,3.10
2019-01-17T13:22:00.702Z,1.57
2019-01-17T13:24:27.183Z,2.73
2019-01-17T13:26:53.717Z,1.23
2019-01-17T13:29:20.333Z,6.33
2019-01-17T13:31:46.833Z,3.17
2019-01-17T13:34:13.372Z,2.33
2019-01-17T13:36:40.562Z,3.40
2019-01-17T13:39:07.684Z,1.43
2019-01-17T13:41:34.326Z,2.83
2019-01-17T13:44:00.834Z,2.53
2019-01-17T13:46:27.411Z,1.67
2019-01-17T13:48:54.002Z,1.80
2019-01-17T13:51:20.650Z,2.17
2019-01-17T13:53:47.162Z,1.53
2019-01-17T13:56:13.847Z,2.50
2019-01-17T13:58:40.501Z,2.57
2019-01-17T14:01:07.014Z,2.90
2019-01-17T14:03:33.538Z,2.37
2019-01-17T14:06:00.029Z,3.07
2019-01-17T14:08:26.582Z,2.30
2019-01-17T14:10:53.145Z,3.07
2019-01-17T14:13:19.762Z,7.30
2019-01-17T14:15:46.246Z,1.90
2019-01-17T14:18:12.720Z,3.30
2019-01-17T14:20:39.215Z,4.27
2019-01-17T14:23:05.811Z,1.10
2019-01-17T14:25:32.423Z,1.83
2019-01-17T14:27:59.063Z,3.93
2019-01-17T14:30:27.961Z,2.50
2019-01-17T14:32:54.527Z,3.87
2019-01-17T14:35:21.098Z,2.57
2019-01-17T14:37:47.622Z,4.10
2019-01-17T14:40:14.303Z,2.60
2019-01-17T14:42:40.972Z,2.70
2019-01-17T14:45:10.221Z,3.30
2019-01-17T14:47:37.612Z,2.60
2019-01-17T14:50:05.342Z,2.47
2019-01-17T14:52:31.886Z,3.10
2019-01-17T14:54:58.687Z,1.73
2019-01-17T14:57:25.252Z,1.63
2019-01-17T14:59:51.804Z,0.30
2019-01-17T15:02:18.369Z,0.40
2019-01-17T15:04:44.958Z,1.27
2019-01-17T15:07:11.530Z,0.20
2019-01-17T15:09:39.391Z,1.10
2019-01-17T15:12:06.363Z,2.40
2019-01-17T15:14:32.888Z,0.50
2019-01-17T15:16:59.441Z,2.33
2019-01-17T15:19:26.018Z,2.27
2019-01-17T15:21:52.577Z,1.90
2019-01-17T15:24:19.154Z,1.70
2019-01-17T15:26:45.648Z,3.27
2019-01-17T15:29:12.191Z,3.23
2019-01-17T15:31:38.917Z,4.03
2019-01-17T15:34:05.565Z,5.37
2019-01-17T15:36:32.180Z,7.67
2019-01-17T15:38:58.790Z,5.43
2019-01-17T15:41:28.689Z,4.50
2019-01-17T15:43:53.791Z,4.87
2019-01-17T15:46:20.354Z,3.80
2019-01-17T15:48:46.834Z,3.27
2019-01-17T15:51:13.402Z,3.37
2019-01-17T15:53:40.024Z,2.57
2019-01-17T15:56:06.595Z,1.73
2019-01-17T15:58:33.308Z,4.27
2019-01-17T16:00:59.898Z,2.20
2019-01-17T16:03:26.437Z,0.97
2019-01-17T16:05:53.138Z,0.60
2019-01-17T16:08:19.703Z,2.03
2019-01-17T16:10:46.285Z,0.97
2019-01-17T16:13:12.848Z,0.63
2019-01-17T16:15:39.516Z,2.77
2019-01-17T16:18:06.041Z,2.60
2019-01-17T16:20:32.698Z,0.63
2019-01-17T16:22:59.227Z,1.73
2019-01-17T16:25:25.879Z,1.77
2019-01-17T16:27:53.138Z,1.27
2019-01-17T16:30:22.577Z,1.30
2019-01-17T16:32:49.254Z,2.97
2019-01-17T16:35:15.823Z,2.97
2019-01-17T16:37:42.647Z,1.10
2019-01-17T16:40:09.300Z,2.17
2019-01-17T16:42:36.109Z,1.13
2019-01-17T16:45:04.082Z,1.30
2019-01-17T16:47:30.631Z,1.90
2019-01-17T16:49:57.165Z,1.53
2019-01-17T16:52:23.796Z,1.33
2019-01-17T16:54:50.338Z,2.57
2019-01-17T16:57:16.983Z,5.10
2019-01-17T16:59:43.557Z,0.30
2019-01-17T17:02:10.052Z,1.83
2019-01-17T17:04:36.627Z,1.37
2019-01-17T17:07:03.221Z,3.90
2019-01-17T17:09:30.121Z,3.77
2019-01-17T17:11:56.754Z,2.73
2019-01-17T17:14:23.272Z,1.60
2019-01-17T17:16:49.802Z,1.40
2019-01-17T17:19:16.396Z,2.33
2019-01-17T17:21:43.034Z,5.33
2019-01-17T17:24:09.653Z,1.80
2019-01-17T17:26:36.203Z,2.40
2019-01-17T17:29:02.815Z,0.73
2019-01-17T17:31:29.360Z,6.83
2019-01-17T17:33:56.031Z,3.33
2019-01-17T17:36:22.599Z,3.07
2019-01-17T17:38:49.188Z,3.37
2019-01-17T17:41:15.719Z,3.33
2019-01-17T17:43:42.431Z,2.10
2019-01-17T17:46:12.973Z,4.30
2019-01-17T17:48:39.690Z,1.27
2019-01-17T17:51:06.321Z,5.17
2019-01-17T17:53:32.930Z,2.87
2019-01-17T17:55:59.671Z,2.60
2019-01-17T17:58:26.295Z,4.07
2019-01-17T18:00:55.924Z,1.43
2019-01-17T18:03:22.631Z,1.77
2019-01-17T18:05:49.172Z,2.63
2019-01-17T18:08:15.694Z,2.47
2019-01-17T18:10:42.286Z,0.87
2019-01-17T18:13:08.793Z,1.17
2019-01-17T18:15:35.352Z,1.43
2019-01-17T18:18:01.990Z,1.30
2019-01-17T18:20:28.550Z,2.77
2019-01-17T18:22:55.107Z,1.63
2019-01-17T18:25:21.696Z,4.47
2019-01-17T18:27:48.209Z,3.90
2019-01-17T18:30:17.328Z,1.50
2019-01-17T18:32:43.858Z,1.23
2019-01-17T18:35:10.488Z,4.30
2019-01-17T18:37:37.072Z,3.07
2019-01-17T18:40:05.502Z,5.37
2019-01-17T18:42:32.036Z,8.27
2019-01-17T18:44:58.580Z,3.20
2019-01-17T18:47:25.138Z,6.40
2019-01-17T18:49:51.761Z,4.13
2019-01-17T18:52:18.289Z,4.20
2019-01-17T18:54:44.807Z,2.93
2019-01-17T18:57:11.353Z,3.20
2019-01-17T18:59:37.876Z,2.90
2019-01-17T19:02:04.410Z,3.33
2019-01-17T19:04:30.932Z,2.57
2019-01-17T19:06:57.610Z,5.00
2019-01-17T19:09:24.140Z,3.23
2019-01-17T19:11:50.660Z,2.40
2019-01-17T19:14:17.980Z,4.10
2019-01-17T19:16:44.512Z,3.03
2019-01-17T19:19:11.024Z,2.80
2019-01-17T19:21:37.656Z,2.10
2019-01-17T19:24:04.195Z,4.83
2019-01-17T19:26:30.713Z,6.63
2019-01-17T19:28:57.225Z,5.43
2019-01-17T19:31:23.800Z,2.03
2019-01-17T19:33:50.465Z,2.30
2019-01-17T19:36:17.074Z,4.37
2019-01-17T19:38:43.589Z,2.50
2019-01-17T19:41:10.097Z,5.97
2019-01-17T19:43:36.704Z,8.23
2019-01-17T19:46:03.252Z,3.33
2019-01-17T19:48:29.833Z,4.03
2019-01-17T19:50:56.472Z,7.13
2019-01-17T19:53:22.988Z,2.07
2019-01-17T19:55:49.532Z,1.80
2019-01-17T19:58:16.005Z,3.60
2019-01-17T20:00:42.708Z,5.40
2019-01-17T20:03:09.258Z,3.07
2019-01-17T20:05:35.840Z,3.50
2019-01-17T20:08:02.428Z,1.97
2019-01-17T20:10:30.951Z,2.23
2019-01-17T20:12:57.522Z,5.03
2019-01-17T20:15:24.414Z,3.47
2019-01-17T20:17:51.052Z,4.23
2019-01-17T20:20:17.586Z,4.33
2019-01-17T20:22:44.144Z,3.67
2019-01-17T20:25:10.701Z,4.60
2019-01-17T20:27:37.233Z,2.73
2019-01-17T20:30:07.295Z,4.50
2019-01-17T20:32:34.343Z,9.43
2019-01-17T20:35:00.953Z,5.00
2019-01-17T20:37:27.612Z,4.40
2019-01-17T20:39:54.259Z,3.90
2019-01-17T20:42:20.825Z,3.90
2019-01-17T20:44:47.342Z,4.73
2019-01-17T20:47:14.082Z,6.10
2019-01-17T20:49:40.683Z,4.13
2019-01-17T20:52:07.220Z,1.93
2019-01-17T20:54:34.330Z,3.83
2019-01-17T20:57:01.478Z,8.20
2019-01-17T20:59:28.013Z,3.30
2019-01-17T21:02:06.129Z,6.57
2019-01-17T21:04:33.576Z,5.57
2019-01-17T21:07:05.682Z,7.13
2019-01-17T21:09:28.549Z,3.37
2019-01-17T21:11:55.086Z,3.37
2019-01-17T21:14:21.962Z,4.07
2019-01-17T21:16:48.666Z,3.87
2019-01-17T21:19:16.765Z,6.00
2019-01-17T21:21:43.322Z,7.40
2019-01-17T21:24:09.853Z,3.67
2019-01-17T21:26:36.999Z,5.13
2019-01-17T21:29:03.477Z,3.90
2019-01-17T21:31:30.010Z,7.77
2019-01-17T21:33:56.605Z,7.87
2019-01-17T21:36:23.432Z,4.80
2019-01-17T21:38:50.350Z,10.03
2019-01-17T21:41:16.910Z,3.77
2019-01-17T21:43:43.423Z,4.77
2019-01-17T21:46:10.797Z,11.00
2019-01-17T21:48:37.307Z,7.10
2019-01-17T21:51:03.827Z,7.00
2019-01-17T21:53:31.212Z,6.17
2019-01-17T21:55:57.746Z,13.97
2019-01-17T21:58:24.341Z,3.77
2019-01-17T22:00:52.120Z,7.70
2019-01-17T22:03:18.768Z,7.30
2019-01-17T22:05:45.475Z,10.17
2019-01-17T22:08:12.377Z,5.20
2019-01-17T22:10:39.056Z,6.23
2019-01-17T22:13:05.578Z,4.90
2019-01-17T22:15:32.113Z,6.03
2019-01-17T22:17:58.668Z,2.13
2019-01-17T22:20:25.209Z,5.47
2019-01-17T22:22:51.996Z,3.00
2019-01-17T22:25:18.540Z,5.17
2019-01-17T22:27:46.119Z,3.47
2019-01-17T22:30:15.164Z,4.17
2019-01-17T22:32:41.780Z,2.23
2019-01-17T22:35:08.644Z,5.00
2019-01-17T22:37:35.156Z,4.93
2019-01-17T22:40:01.667Z,3.80
2019-01-17T22:42:28.213Z,3.33
2019-01-17T22:44:54.735Z,6.93
2019-01-17T22:47:21.251Z,1.67
2019-01-17T22:49:47.782Z,2.27
2019-01-17T22:52:14.348Z,1.67
2019-01-17T22:54:40.903Z,4.70
2019-01-17T22:57:07.444Z,1.63
2019-01-17T22:59:34.169Z,3.90
2019-01-17T23:02:00.674Z,2.27
2019-01-17T23:04:27.248Z,1.77
2019-01-17T23:06:53.779Z,6.03
2019-01-17T23:09:20.320Z,2.80
2019-01-17T23:11:46.834Z,5.07
2019-01-17T23:14:13.370Z,2.93
2019-01-17T23:16:40.350Z,5.63
2019-01-17T23:19:06.891Z,4.00
2019-01-17T23:21:33.406Z,4.03
2019-01-17T23:23:59.961Z,5.07
2019-01-17T23:26:26.476Z,4.03
2019-01-17T23:28:53.142Z,5.27
2019-01-17T23:31:19.669Z,3.77
2019-01-17T23:33:46.163Z,3.47
2019-01-17T23:36:12.919Z,2.87
2019-01-17T23:38:39.440Z,2.13
2019-01-17T23:41:06.073Z,3.70
2019-01-17T23:43:32.652Z,2.07
2019-01-17T23:45:59.255Z,3.17
2019-01-17T23:48:25.809Z,4.50
2019-01-17T23:50:52.316Z,4.17
2019-01-17T23:53:18.858Z,4.17
2019-01-17T23:55:45.463Z,6.13
2019-01-17T23:58:12.115Z,6.70
